sensor_id;sensor_type;location;lat;lon;timestamp;P1;durP1;ratioP1;P2;durP2;ratioP2
846;SDS011;410;48.954;9.474;2022-11-23T00:01:55;9.25;;;7.30;;
846;SDS011;410;48.954;9.474;2022-11-23T00:04:00;9.63;;;7.97;;
846;SDS011;410;48.954;9.474;2022-11-23T00:06:05;10.35;;;7.93;;
846;SDS011;410;48.954;9.474;2022-11-23T00:08:08;10.15;;;8.20;;
846;SDS011;410;48.954;9.474;2022-11-23T00:10:12;11.32;;;7.93;;
846;SDS011;410;48.954;9.474;2022-11-23T00:12:15;8.48;;;6.65;;
846;SDS011;410;48.954;9.474;2022-11-23T00:14:18;9.50;;;7.03;;
846;SDS011;410;48.954;9.474;2022-11-23T00:16:22;8.93;;;7.70;;
846;SDS011;410;48.954;9.474;2022-11-23T00:18:26;9.77;;;6.88;;
846;SDS011;410;48.954;9.474;2022-11-23T00:20:29;8.07;;;6.53;;
846;SDS011;410;48.954;9.474;2022-11-23T00:22:32;9.80;;;6.70;;
846;SDS011;410;48.954;9.474;2022-11-23T00:24:35;11.50;;;6.70;;
846;SDS011;410;48.954;9.474;2022-11-23T00:26:40;9.38;;;6.55;;
846;SDS011;410;48.954;9.474;2022-11-23T00:28:43;13.52;;;7.47;;
846;SDS011;410;48.954;9.474;2022-11-23T00:30:49;15.32;;;6.78;;
846;SDS011;410;48.954;9.474;2022-11-23T00:32:53;12.05;;;7.13;;
846;SDS011;410;48.954;9.474;2022-11-23T00:34:56;21.02;;;7.13;;
846;SDS011;410;48.954;9.474;2022-11-23T00:36:59;10.55;;;5.93;;
846;SDS011;410;48.954;9.474;2022-11-23T00:39:02;8.73;;;6.65;;
846;SDS011;410;48.954;9.474;2022-11-23T00:41:06;8.63;;;6.40;;
846;SDS011;410;48.954;9.474;2022-11-23T00:43:12;10.25;;;7.20;;
846;SDS011;410;48.954;9.474;2022-11-23T00:45:15;10.18;;;7.47;;
846;SDS011;410;48.954;9.474;2022-11-23T00:47:19;10.80;;;7.38;;
846;SDS011;410;48.954;9.474;2022-11-23T00:49:22;14.52;;;7.70;;
846;SDS011;410;48.954;9.474;2022-11-23T00:51:25;10.32;;;6.10;;
846;SDS011;410;48.954;9.474;2022-11-23T00:53:29;10.07;;;6.00;;
846;SDS011;410;48.954;9.474;2022-11-23T00:55:32;8.70;;;5.38;;
846;SDS011;410;48.954;9.474;2022-11-23T00:57:35;12.90;;;6.72;;
846;SDS011;410;48.954;9.474;2022-11-23T00:59:40;8.90;;;6.13;;
846;SDS011;410;48.954;9.474;2022-11-23T01:01:43;14.65;;;7.50;;
846;SDS011;410;48.954;9.474;2022-11-23T01:03:49;9.27;;;6.20;;
846;SDS011;410;48.954;9.474;2022-11-23T01:05:53;14.35;;;7.63;;
846;SDS011;410;48.954;9.474;2022-11-23T01:07:56;11.85;;;5.88;;
846;SDS011;410;48.954;9.474;2022-11-23T01:09:59;7.43;;;5.95;;
846;SDS011;410;48.954;9.474;2022-11-23T01:12:03;6.70;;;5.22;;
846;SDS011;410;48.954;9.474;2022-11-23T01:14:06;8.05;;;5.30;;
846;SDS011;410;48.954;9.474;2022-11-23T01:16:12;10.15;;;5.68;;
846;SDS011;410;48.954;9.474;2022-11-23T01:18:24;8.50;;;5.72;;
846;SDS011;410;48.954;9.474;2022-11-23T01:20:28;6.30;;;5.22;;
846;SDS011;410;48.954;9.474;2022-11-23T01:22:31;9.95;;;6.50;;
846;SDS011;410;48.954;9.474;2022-11-23T01:24:34;8.77;;;5.28;;
846;SDS011;410;48.954;9.474;2022-11-23T01:26:37;6.70;;;5.95;;
846;SDS011;410;48.954;9.474;2022-11-23T01:28:40;12.02;;;8.43;;
846;SDS011;410;48.954;9.474;2022-11-23T01:30:43;20.83;;;13.15;;
846;SDS011;410;48.954;9.474;2022-11-23T01:32:49;10.48;;;6.40;;
846;SDS011;410;48.954;9.474;2022-11-23T01:34:52;11.27;;;7.85;;
846;SDS011;410;48.954;9.474;2022-11-23T01:36:55;15.68;;;10.32;;
846;SDS011;410;48.954;9.474;2022-11-23T01:39:03;12.55;;;8.63;;
846;SDS011;410;48.954;9.474;2022-11-23T01:41:06;15.95;;;10.05;;
846;SDS011;410;48.954;9.474;2022-11-23T01:43:12;14.75;;;9.10;;
846;SDS011;410;48.954;9.474;2022-11-23T01:47:40;13.85;;;9.60;;
846;SDS011;410;48.954;9.474;2022-11-23T01:49:46;9.90;;;7.32;;
846;SDS011;410;48.954;9.474;2022-11-23T01:51:52;8.25;;;6.30;;
846;SDS011;410;48.954;9.474;2022-11-23T01:53:59;7.18;;;6.47;;
846;SDS011;410;48.954;9.474;2022-11-23T01:56:05;7.80;;;6.20;;
846;SDS011;410;48.954;9.474;2022-11-23T01:58:09;6.93;;;4.85;;
846;SDS011;410;48.954;9.474;2022-11-23T02:00:13;9.00;;;6.43;;
846;SDS011;410;48.954;9.474;2022-11-23T02:02:17;8.88;;;6.47;;
846;SDS011;410;48.954;9.474;2022-11-23T02:04:25;6.72;;;5.28;;
846;SDS011;410;48.954;9.474;2022-11-23T02:06:31;7.15;;;5.50;;
846;SDS011;410;48.954;9.474;2022-11-23T02:08:36;7.20;;;4.97;;
846;SDS011;410;48.954;9.474;2022-11-23T02:10:39;7.63;;;5.95;;
846;SDS011;410;48.954;9.474;2022-11-23T02:12:44;7.75;;;5.53;;
846;SDS011;410;48.954;9.474;2022-11-23T02:14:47;6.30;;;4.90;;
846;SDS011;410;48.954;9.474;2022-11-23T02:16:52;8.10;;;5.78;;
846;SDS011;410;48.954;9.474;2022-11-23T02:18:55;7.22;;;5.45;;
846;SDS011;410;48.954;9.474;2022-11-23T02:20:59;6.50;;;5.10;;
846;SDS011;410;48.954;9.474;2022-11-23T02:23:08;5.53;;;4.70;;
846;SDS011;410;48.954;9.474;2022-11-23T02:25:18;5.25;;;4.63;;
846;SDS011;410;48.954;9.474;2022-11-23T02:27:28;9.30;;;5.70;;
846;SDS011;410;48.954;9.474;2022-11-23T02:29:31;6.22;;;4.70;;
846;SDS011;410;48.954;9.474;2022-11-23T02:31:35;10.05;;;6.00;;
846;SDS011;410;48.954;9.474;2022-11-23T02:33:38;8.57;;;4.95;;
846;SDS011;410;48.954;9.474;2022-11-23T02:35:46;5.03;;;4.50;;
846;SDS011;410;48.954;9.474;2022-11-23T02:37:50;8.98;;;5.40;;
846;SDS011;410;48.954;9.474;2022-11-23T02:39:54;9.02;;;5.70;;
846;SDS011;410;48.954;9.474;2022-11-23T02:41:58;9.68;;;5.60;;
846;SDS011;410;48.954;9.474;2022-11-23T02:44:02;12.48;;;6.80;;
846;SDS011;410;48.954;9.474;2022-11-23T02:46:06;5.80;;;4.85;;
846;SDS011;410;48.954;9.474;2022-11-23T02:48:09;7.50;;;5.18;;
846;SDS011;410;48.954;9.474;2022-11-23T02:50:13;7.57;;;5.13;;
846;SDS011;410;48.954;9.474;2022-11-23T02:52:17;10.55;;;5.72;;
846;SDS011;410;48.954;9.474;2022-11-23T02:54:20;7.15;;;5.50;;
846;SDS011;410;48.954;9.474;2022-11-23T02:56:24;7.72;;;5.95;;
846;SDS011;410;48.954;9.474;2022-11-23T02:58:27;9.63;;;6.68;;
846;SDS011;410;48.954;9.474;2022-11-23T03:00:32;8.65;;;5.95;;
846;SDS011;410;48.954;9.474;2022-11-23T03:02:36;6.30;;;5.20;;
846;SDS011;410;48.954;9.474;2022-11-23T03:04:39;6.30;;;4.80;;
846;SDS011;410;48.954;9.474;2022-11-23T03:06:42;8.68;;;6.25;;
846;SDS011;410;48.954;9.474;2022-11-23T03:08:46;9.60;;;6.65;;
846;SDS011;410;48.954;9.474;2022-11-23T03:10:50;10.05;;;6.40;;
846;SDS011;410;48.954;9.474;2022-11-23T03:12:54;8.80;;;6.20;;
846;SDS011;410;48.954;9.474;2022-11-23T03:14:58;9.25;;;5.80;;
846;SDS011;410;48.954;9.474;2022-11-23T03:17:05;7.18;;;5.65;;
846;SDS011;410;48.954;9.474;2022-11-23T03:19:14;7.68;;;5.50;;
846;SDS011;410;48.954;9.474;2022-11-23T03:21:17;6.63;;;5.90;;
846;SDS011;410;48.954;9.474;2022-11-23T03:23:20;7.65;;;6.15;;
846;SDS011;410;48.954;9.474;2022-11-23T03:25:24;8.57;;;6.35;;
846;SDS011;410;48.954;9.474;2022-11-23T03:27:29;7.15;;;5.95;;
846;SDS011;410;48.954;9.474;2022-11-23T03:29:34;13.07;;;5.45;;
846;SDS011;410;48.954;9.474;2022-11-23T03:31:44;7.75;;;5.72;;
846;SDS011;410;48.954;9.474;2022-11-23T03:33:50;10.48;;;5.97;;
846;SDS011;410;48.954;9.474;2022-11-23T03:35:53;6.97;;;5.60;;
846;SDS011;410;48.954;9.474;2022-11-23T03:38:01;7.40;;;5.93;;
846;SDS011;410;48.954;9.474;2022-11-23T03:40:05;7.53;;;5.35;;
846;SDS011;410;48.954;9.474;2022-11-23T03:42:44;7.55;;;5.55;;
846;SDS011;410;48.954;9.474;2022-11-23T03:44:47;9.05;;;5.88;;
846;SDS011;410;48.954;9.474;2022-11-23T03:46:50;9.20;;;5.60;;
846;SDS011;410;48.954;9.474;2022-11-23T03:48:54;7.30;;;5.65;;
846;SDS011;410;48.954;9.474;2022-11-23T03:50:57;9.35;;;5.82;;
846;SDS011;410;48.954;9.474;2022-11-23T03:53:00;7.03;;;4.93;;
846;SDS011;410;48.954;9.474;2022-11-23T03:55:04;8.80;;;5.57;;
846;SDS011;410;48.954;9.474;2022-11-23T03:57:08;9.07;;;6.90;;
846;SDS011;410;48.954;9.474;2022-11-23T03:59:11;7.63;;;5.53;;
846;SDS011;410;48.954;9.474;2022-11-23T04:01:14;7.43;;;5.85;;
846;SDS011;410;48.954;9.474;2022-11-23T04:03:20;7.70;;;6.55;;
846;SDS011;410;48.954;9.474;2022-11-23T04:06:03;7.82;;;5.72;;
846;SDS011;410;48.954;9.474;2022-11-23T04:08:27;7.20;;;5.03;;
846;SDS011;410;48.954;9.474;2022-11-23T04:10:32;6.95;;;6.15;;
846;SDS011;410;48.954;9.474;2022-11-23T04:12:48;8.38;;;5.78;;
846;SDS011;410;48.954;9.474;2022-11-23T04:14:52;10.35;;;5.90;;
846;SDS011;410;48.954;9.474;2022-11-23T04:16:55;6.75;;;5.13;;
846;SDS011;410;48.954;9.474;2022-11-23T04:18:58;8.80;;;5.50;;
846;SDS011;410;48.954;9.474;2022-11-23T04:21:01;6.30;;;5.20;;
846;SDS011;410;48.954;9.474;2022-11-23T04:23:06;7.80;;;5.32;;
846;SDS011;410;48.954;9.474;2022-11-23T04:25:15;8.73;;;5.70;;
846;SDS011;410;48.954;9.474;2022-11-23T04:27:19;7.70;;;4.80;;
846;SDS011;410;48.954;9.474;2022-11-23T04:29:22;7.90;;;5.80;;
846;SDS011;410;48.954;9.474;2022-11-23T04:31:27;7.03;;;4.55;;
846;SDS011;410;48.954;9.474;2022-11-23T04:33:43;6.75;;;4.80;;
846;SDS011;410;48.954;9.474;2022-11-23T04:35:49;11.90;;;5.25;;
846;SDS011;410;48.954;9.474;2022-11-23T04:37:54;7.47;;;4.85;;
846;SDS011;410;48.954;9.474;2022-11-23T04:40:00;7.82;;;5.07;;
846;SDS011;410;48.954;9.474;2022-11-23T04:42:14;6.22;;;4.60;;
846;SDS011;410;48.954;9.474;2022-11-23T04:44:23;8.10;;;5.65;;
846;SDS011;410;48.954;9.474;2022-11-23T04:46:33;6.45;;;4.80;;
846;SDS011;410;48.954;9.474;2022-11-23T04:48:41;7.00;;;4.78;;
846;SDS011;410;48.954;9.474;2022-11-23T04:50:44;5.90;;;5.22;;
846;SDS011;410;48.954;9.474;2022-11-23T04:52:55;7.47;;;4.68;;
846;SDS011;410;48.954;9.474;2022-11-23T04:55:07;5.25;;;4.40;;
846;SDS011;410;48.954;9.474;2022-11-23T04:57:18;9.95;;;5.47;;
846;SDS011;410;48.954;9.474;2022-11-23T04:59:24;6.28;;;4.35;;
846;SDS011;410;48.954;9.474;2022-11-23T05:01:27;8.00;;;5.68;;
846;SDS011;410;48.954;9.474;2022-11-23T05:04:02;10.27;;;8.20;;
846;SDS011;410;48.954;9.474;2022-11-23T05:06:06;10.32;;;6.32;;
846;SDS011;410;48.954;9.474;2022-11-23T05:08:17;7.50;;;5.13;;
846;SDS011;410;48.954;9.474;2022-11-23T05:10:27;8.93;;;5.20;;
846;SDS011;410;48.954;9.474;2022-11-23T05:12:32;7.45;;;5.15;;
846;SDS011;410;48.954;9.474;2022-11-23T05:14:36;9.02;;;5.25;;
846;SDS011;410;48.954;9.474;2022-11-23T05:16:42;12.70;;;5.80;;
846;SDS011;410;48.954;9.474;2022-11-23T05:18:45;10.85;;;7.45;;
846;SDS011;410;48.954;9.474;2022-11-23T05:20:48;10.52;;;7.63;;
846;SDS011;410;48.954;9.474;2022-11-23T05:22:51;8.30;;;6.15;;
846;SDS011;410;48.954;9.474;2022-11-23T05:24:58;9.02;;;5.60;;
846;SDS011;410;48.954;9.474;2022-11-23T05:27:04;8.20;;;5.97;;
846;SDS011;410;48.954;9.474;2022-11-23T05:29:07;12.27;;;5.65;;
846;SDS011;410;48.954;9.474;2022-11-23T05:31:10;6.32;;;4.78;;
846;SDS011;410;48.954;9.474;2022-11-23T05:33:15;14.40;;;6.10;;
846;SDS011;410;48.954;9.474;2022-11-23T05:35:19;8.63;;;5.35;;
846;SDS011;410;48.954;9.474;2022-11-23T05:37:23;8.23;;;5.75;;
846;SDS011;410;48.954;9.474;2022-11-23T05:39:32;7.43;;;5.80;;
846;SDS011;410;48.954;9.474;2022-11-23T05:41:37;7.65;;;6.18;;
846;SDS011;410;48.954;9.474;2022-11-23T05:43:51;8.40;;;6.05;;
846;SDS011;410;48.954;9.474;2022-11-23T05:45:59;8.63;;;6.05;;
846;SDS011;410;48.954;9.474;2022-11-23T05:48:04;7.03;;;6.10;;
846;SDS011;410;48.954;9.474;2022-11-23T05:50:27;7.18;;;5.72;;
846;SDS011;410;48.954;9.474;2022-11-23T05:52:49;7.45;;;5.88;;
846;SDS011;410;48.954;9.474;2022-11-23T05:54:52;7.35;;;5.40;;
846;SDS011;410;48.954;9.474;2022-11-23T05:56:57;8.68;;;5.68;;
846;SDS011;410;48.954;9.474;2022-11-23T05:59:12;6.70;;;5.10;;
846;SDS011;410;48.954;9.474;2022-11-23T06:01:19;10.50;;;6.03;;
846;SDS011;410;48.954;9.474;2022-11-23T06:03:23;6.72;;;5.40;;
846;SDS011;410;48.954;9.474;2022-11-23T06:05:26;9.13;;;5.97;;
846;SDS011;410;48.954;9.474;2022-11-23T06:07:30;7.38;;;5.35;;
846;SDS011;410;48.954;9.474;2022-11-23T06:09:38;7.43;;;5.50;;
846;SDS011;410;48.954;9.474;2022-11-23T06:11:43;8.55;;;5.60;;
846;SDS011;410;48.954;9.474;2022-11-23T06:13:53;8.57;;;5.38;;
846;SDS011;410;48.954;9.474;2022-11-23T06:15:56;8.38;;;5.45;;
846;SDS011;410;48.954;9.474;2022-11-23T06:18:07;7.68;;;5.13;;
846;SDS011;410;48.954;9.474;2022-11-23T06:20:20;13.68;;;5.20;;
846;SDS011;410;48.954;9.474;2022-11-23T06:22:30;7.15;;;5.18;;
846;SDS011;410;48.954;9.474;2022-11-23T06:24:36;7.45;;;4.88;;
846;SDS011;410;48.954;9.474;2022-11-23T06:26:58;8.43;;;5.70;;
846;SDS011;410;48.954;9.474;2022-11-23T06:29:02;10.80;;;6.50;;
846;SDS011;410;48.954;9.474;2022-11-23T06:31:07;9.70;;;5.82;;
846;SDS011;410;48.954;9.474;2022-11-23T06:33:11;8.43;;;5.28;;
846;SDS011;410;48.954;9.474;2022-11-23T06:35:19;8.27;;;5.72;;
846;SDS011;410;48.954;9.474;2022-11-23T06:37:22;7.38;;;4.97;;
846;SDS011;410;48.954;9.474;2022-11-23T06:39:27;8.52;;;5.60;;
846;SDS011;410;48.954;9.474;2022-11-23T06:41:33;9.00;;;5.32;;
846;SDS011;410;48.954;9.474;2022-11-23T06:43:36;9.40;;;5.20;;
846;SDS011;410;48.954;9.474;2022-11-23T06:45:41;6.18;;;4.97;;
846;SDS011;410;48.954;9.474;2022-11-23T06:47:47;8.18;;;4.90;;
846;SDS011;410;48.954;9.474;2022-11-23T06:49:51;10.35;;;5.45;;
846;SDS011;410;48.954;9.474;2022-11-23T06:52:00;9.60;;;5.10;;
846;SDS011;410;48.954;9.474;2022-11-23T06:54:03;8.35;;;5.28;;
846;SDS011;410;48.954;9.474;2022-11-23T06:56:07;6.18;;;5.30;;
846;SDS011;410;48.954;9.474;2022-11-23T06:58:10;8.82;;;6.05;;
846;SDS011;410;48.954;9.474;2022-11-23T07:00:14;8.75;;;6.40;;
846;SDS011;410;48.954;9.474;2022-11-23T07:02:19;11.00;;;6.43;;
846;SDS011;410;48.954;9.474;2022-11-23T07:04:22;9.02;;;6.05;;
846;SDS011;410;48.954;9.474;2022-11-23T07:06:26;10.18;;;6.55;;
846;SDS011;410;48.954;9.474;2022-11-23T07:08:33;8.20;;;5.75;;
846;SDS011;410;48.954;9.474;2022-11-23T07:10:49;15.48;;;5.55;;
846;SDS011;410;48.954;9.474;2022-11-23T07:12:53;5.95;;;5.30;;
846;SDS011;410;48.954;9.474;2022-11-23T07:14:58;9.00;;;5.93;;
846;SDS011;410;48.954;9.474;2022-11-23T07:17:04;8.57;;;6.30;;
846;SDS011;410;48.954;9.474;2022-11-23T07:19:11;8.73;;;6.78;;
846;SDS011;410;48.954;9.474;2022-11-23T07:21:15;10.40;;;5.97;;
846;SDS011;410;48.954;9.474;2022-11-23T07:23:19;8.98;;;6.07;;
846;SDS011;410;48.954;9.474;2022-11-23T07:25:22;8.18;;;6.30;;
846;SDS011;410;48.954;9.474;2022-11-23T07:27:26;9.70;;;6.18;;
846;SDS011;410;48.954;9.474;2022-11-23T07:29:29;9.13;;;5.80;;
846;SDS011;410;48.954;9.474;2022-11-23T07:31:33;9.68;;;6.50;;
846;SDS011;410;48.954;9.474;2022-11-23T07:33:36;9.07;;;6.90;;
846;SDS011;410;48.954;9.474;2022-11-23T07:35:40;7.05;;;6.15;;
846;SDS011;410;48.954;9.474;2022-11-23T07:37:43;7.97;;;6.07;;
846;SDS011;410;48.954;9.474;2022-11-23T07:39:47;8.23;;;5.93;;
846;SDS011;410;48.954;9.474;2022-11-23T07:41:59;6.78;;;5.18;;
846;SDS011;410;48.954;9.474;2022-11-23T07:44:22;9.02;;;6.25;;
846;SDS011;410;48.954;9.474;2022-11-23T07:46:25;14.55;;;11.77;;
846;SDS011;410;48.954;9.474;2022-11-23T07:48:28;25.23;;;21.77;;
846;SDS011;410;48.954;9.474;2022-11-23T07:50:37;18.48;;;16.42;;
846;SDS011;410;48.954;9.474;2022-11-23T07:52:42;15.13;;;11.52;;
846;SDS011;410;48.954;9.474;2022-11-23T07:54:45;11.48;;;7.22;;
846;SDS011;410;48.954;9.474;2022-11-23T07:56:48;9.10;;;6.75;;
846;SDS011;410;48.954;9.474;2022-11-23T07:58:51;20.33;;;15.68;;
846;SDS011;410;48.954;9.474;2022-11-23T08:00:54;9.75;;;6.53;;
846;SDS011;410;48.954;9.474;2022-11-23T08:02:57;10.15;;;6.25;;
846;SDS011;410;48.954;9.474;2022-11-23T08:05:20;9.23;;;5.90;;
846;SDS011;410;48.954;9.474;2022-11-23T08:07:23;10.20;;;7.00;;
846;SDS011;410;48.954;9.474;2022-11-23T08:09:28;8.73;;;6.63;;
846;SDS011;410;48.954;9.474;2022-11-23T08:11:31;10.23;;;7.88;;
846;SDS011;410;48.954;9.474;2022-11-23T08:13:35;8.75;;;7.47;;
846;SDS011;410;48.954;9.474;2022-11-23T08:15:38;11.80;;;10.60;;
846;SDS011;410;48.954;9.474;2022-11-23T08:17:41;14.23;;;7.13;;
846;SDS011;410;48.954;9.474;2022-11-23T08:19:44;14.77;;;8.27;;
846;SDS011;410;48.954;9.474;2022-11-23T08:21:47;10.80;;;5.95;;
846;SDS011;410;48.954;9.474;2022-11-23T08:23:51;8.95;;;6.35;;
846;SDS011;410;48.954;9.474;2022-11-23T08:25:55;8.05;;;6.80;;
846;SDS011;410;48.954;9.474;2022-11-23T08:27:59;10.07;;;7.05;;
846;SDS011;410;48.954;9.474;2022-11-23T08:30:03;10.75;;;8.93;;
846;SDS011;410;48.954;9.474;2022-11-23T08:32:07;11.43;;;8.88;;
846;SDS011;410;48.954;9.474;2022-11-23T08:34:10;13.88;;;11.07;;
846;SDS011;410;48.954;9.474;2022-11-23T08:36:14;11.52;;;9.45;;
846;SDS011;410;48.954;9.474;2022-11-23T08:38:17;9.55;;;7.40;;
846;SDS011;410;48.954;9.474;2022-11-23T08:40:20;9.05;;;6.90;;
846;SDS011;410;48.954;9.474;2022-11-23T08:42:27;7.68;;;5.40;;
846;SDS011;410;48.954;9.474;2022-11-23T08:44:30;9.23;;;6.30;;
846;SDS011;410;48.954;9.474;2022-11-23T08:46:34;9.50;;;6.15;;
846;SDS011;410;48.954;9.474;2022-11-23T08:48:37;8.80;;;6.25;;
846;SDS011;410;48.954;9.474;2022-11-23T08:50:40;9.90;;;6.32;;
846;SDS011;410;48.954;9.474;2022-11-23T08:52:44;8.30;;;5.40;;
846;SDS011;410;48.954;9.474;2022-11-23T08:54:48;9.27;;;6.20;;
846;SDS011;410;48.954;9.474;2022-11-23T08:56:51;7.75;;;5.80;;
846;SDS011;410;48.954;9.474;2022-11-23T08:58:55;9.38;;;5.70;;
846;SDS011;410;48.954;9.474;2022-11-23T09:00:59;17.67;;;13.07;;
846;SDS011;410;48.954;9.474;2022-11-23T09:03:02;6.75;;;5.60;;
846;SDS011;410;48.954;9.474;2022-11-23T09:05:06;7.38;;;6.32;;
846;SDS011;410;48.954;9.474;2022-11-23T09:07:09;11.30;;;5.93;;
846;SDS011;410;48.954;9.474;2022-11-23T09:09:13;9.65;;;6.82;;
846;SDS011;410;48.954;9.474;2022-11-23T09:11:16;8.88;;;5.00;;
846;SDS011;410;48.954;9.474;2022-11-23T09:13:19;7.53;;;5.10;;
846;SDS011;410;48.954;9.474;2022-11-23T09:15:24;7.87;;;5.20;;
846;SDS011;410;48.954;9.474;2022-11-23T09:17:27;7.70;;;5.53;;
846;SDS011;410;48.954;9.474;2022-11-23T09:19:32;6.53;;;5.17;;
846;SDS011;410;48.954;9.474;2022-11-23T09:21:35;5.43;;;4.43;;
846;SDS011;410;48.954;9.474;2022-11-23T09:23:39;6.80;;;4.60;;
846;SDS011;410;48.954;9.474;2022-11-23T09:25:43;6.80;;;4.73;;
846;SDS011;410;48.954;9.474;2022-11-23T09:27:48;8.73;;;5.53;;
846;SDS011;410;48.954;9.474;2022-11-23T09:29:51;5.65;;;3.83;;
846;SDS011;410;48.954;9.474;2022-11-23T09:31:56;10.77;;;4.70;;
846;SDS011;410;48.954;9.474;2022-11-23T09:33:59;15.20;;;7.30;;
846;SDS011;410;48.954;9.474;2022-11-23T09:36:02;5.63;;;3.00;;
846;SDS011;410;48.954;9.474;2022-11-23T09:38:06;6.30;;;3.03;;
846;SDS011;410;48.954;9.474;2022-11-23T09:40:09;10.00;;;3.93;;
846;SDS011;410;48.954;9.474;2022-11-23T09:44:45;7.70;;;2.47;;
846;SDS011;410;48.954;9.474;2022-11-23T09:47:01;5.23;;;1.87;;
846;SDS011;410;48.954;9.474;2022-11-23T09:49:10;5.57;;;1.90;;
846;SDS011;410;48.954;9.474;2022-11-23T09:51:16;5.33;;;1.70;;
846;SDS011;410;48.954;9.474;2022-11-23T09:53:20;10.20;;;5.97;;
846;SDS011;410;48.954;9.474;2022-11-23T09:55:28;9.33;;;2.53;;
846;SDS011;410;48.954;9.474;2022-11-23T09:57:36;6.10;;;1.70;;
846;SDS011;410;48.954;9.474;2022-11-23T09:59:42;2.87;;;1.93;;
846;SDS011;410;48.954;9.474;2022-11-23T10:01:47;3.23;;;1.50;;
846;SDS011;410;48.954;9.474;2022-11-23T10:03:52;3.80;;;1.63;;
846;SDS011;410;48.954;9.474;2022-11-23T10:05:58;6.40;;;2.00;;
846;SDS011;410;48.954;9.474;2022-11-23T10:08:05;4.30;;;1.50;;
846;SDS011;410;48.954;9.474;2022-11-23T10:10:17;4.20;;;1.90;;
846;SDS011;410;48.954;9.474;2022-11-23T10:12:32;3.63;;;1.77;;
846;SDS011;410;48.954;9.474;2022-11-23T10:14:48;8.37;;;2.23;;
846;SDS011;410;48.954;9.474;2022-11-23T10:16:57;5.10;;;1.70;;
846;SDS011;410;48.954;9.474;2022-11-23T10:19:04;7.87;;;1.97;;
846;SDS011;410;48.954;9.474;2022-11-23T10:21:16;4.27;;;1.60;;
846;SDS011;410;48.954;9.474;2022-11-23T10:23:26;4.17;;;2.03;;
846;SDS011;410;48.954;9.474;2022-11-23T10:25:38;4.80;;;1.57;;
846;SDS011;410;48.954;9.474;2022-11-23T10:27:43;5.00;;;1.90;;
846;SDS011;410;48.954;9.474;2022-11-23T10:29:48;3.83;;;1.93;;
846;SDS011;410;48.954;9.474;2022-11-23T10:31:52;4.37;;;1.90;;
846;SDS011;410;48.954;9.474;2022-11-23T10:34:00;4.07;;;2.03;;
846;SDS011;410;48.954;9.474;2022-11-23T10:36:09;5.37;;;1.90;;
846;SDS011;410;48.954;9.474;2022-11-23T10:38:15;7.07;;;2.10;;
846;SDS011;410;48.954;9.474;2022-11-23T10:40:20;5.37;;;1.90;;
846;SDS011;410;48.954;9.474;2022-11-23T10:42:27;5.57;;;1.80;;
846;SDS011;410;48.954;9.474;2022-11-23T10:44:33;6.77;;;2.37;;
846;SDS011;410;48.954;9.474;2022-11-23T10:46:38;3.87;;;1.60;;
846;SDS011;410;48.954;9.474;2022-11-23T10:48:41;6.17;;;1.97;;
846;SDS011;410;48.954;9.474;2022-11-23T10:50:46;4.43;;;1.93;;
846;SDS011;410;48.954;9.474;2022-11-23T10:52:50;4.13;;;2.27;;
846;SDS011;410;48.954;9.474;2022-11-23T10:54:55;6.77;;;2.00;;
846;SDS011;410;48.954;9.474;2022-11-23T10:57:01;4.43;;;2.00;;
846;SDS011;410;48.954;9.474;2022-11-23T10:59:08;5.43;;;1.83;;
846;SDS011;410;48.954;9.474;2022-11-23T11:01:27;4.50;;;2.00;;
846;SDS011;410;48.954;9.474;2022-11-23T11:03:31;4.10;;;1.60;;
846;SDS011;410;48.954;9.474;2022-11-23T11:05:36;3.30;;;1.50;;
846;SDS011;410;48.954;9.474;2022-11-23T11:08:02;5.07;;;2.07;;
846;SDS011;410;48.954;9.474;2022-11-23T11:10:30;4.57;;;1.80;;
846;SDS011;410;48.954;9.474;2022-11-23T11:12:35;4.33;;;1.90;;
846;SDS011;410;48.954;9.474;2022-11-23T11:14:56;4.73;;;1.63;;
846;SDS011;410;48.954;9.474;2022-11-23T11:17:13;4.37;;;1.87;;
846;SDS011;410;48.954;9.474;2022-11-23T11:19:28;3.80;;;1.90;;
846;SDS011;410;48.954;9.474;2022-11-23T11:21:32;4.57;;;1.87;;
846;SDS011;410;48.954;9.474;2022-11-23T11:23:38;6.03;;;2.10;;
846;SDS011;410;48.954;9.474;2022-11-23T11:25:43;6.00;;;1.87;;
846;SDS011;410;48.954;9.474;2022-11-23T11:27:49;5.80;;;2.40;;
846;SDS011;410;48.954;9.474;2022-11-23T11:29:53;6.07;;;1.90;;
846;SDS011;410;48.954;9.474;2022-11-23T11:31:58;4.50;;;1.80;;
846;SDS011;410;48.954;9.474;2022-11-23T11:34:06;4.90;;;2.27;;
846;SDS011;410;48.954;9.474;2022-11-23T11:36:21;3.73;;;1.83;;
846;SDS011;410;48.954;9.474;2022-11-23T11:38:26;3.53;;;2.03;;
846;SDS011;410;48.954;9.474;2022-11-23T11:40:35;29.83;;;19.30;;
846;SDS011;410;48.954;9.474;2022-11-23T11:42:42;7.20;;;1.90;;
846;SDS011;410;48.954;9.474;2022-11-23T11:44:47;4.47;;;1.77;;
846;SDS011;410;48.954;9.474;2022-11-23T11:46:54;4.37;;;1.70;;
846;SDS011;410;48.954;9.474;2022-11-23T11:49:02;6.17;;;1.67;;
846;SDS011;410;48.954;9.474;2022-11-23T11:51:08;5.30;;;1.43;;
846;SDS011;410;48.954;9.474;2022-11-23T11:53:15;3.03;;;1.57;;
846;SDS011;410;48.954;9.474;2022-11-23T11:55:22;4.97;;;1.70;;
846;SDS011;410;48.954;9.474;2022-11-23T11:57:30;7.10;;;1.80;;
846;SDS011;410;48.954;9.474;2022-11-23T11:59:38;3.70;;;1.80;;
846;SDS011;410;48.954;9.474;2022-11-23T12:01:50;4.50;;;1.47;;
846;SDS011;410;48.954;9.474;2022-11-23T12:03:58;4.63;;;1.80;;
846;SDS011;410;48.954;9.474;2022-11-23T12:06:04;3.73;;;1.80;;
846;SDS011;410;48.954;9.474;2022-11-23T12:08:11;3.60;;;1.30;;
846;SDS011;410;48.954;9.474;2022-11-23T12:10:16;1.70;;;1.03;;
846;SDS011;410;48.954;9.474;2022-11-23T12:12:21;3.93;;;1.47;;
846;SDS011;410;48.954;9.474;2022-11-23T12:14:32;4.87;;;2.10;;
846;SDS011;410;48.954;9.474;2022-11-23T12:16:38;4.13;;;1.40;;
846;SDS011;410;48.954;9.474;2022-11-23T12:18:56;3.30;;;1.23;;
846;SDS011;410;48.954;9.474;2022-11-23T12:21:10;14.57;;;7.53;;
846;SDS011;410;48.954;9.474;2022-11-23T12:23:22;3.57;;;1.47;;
846;SDS011;410;48.954;9.474;2022-11-23T12:25:30;5.33;;;2.03;;
846;SDS011;410;48.954;9.474;2022-11-23T12:27:38;2.77;;;1.50;;
846;SDS011;410;48.954;9.474;2022-11-23T12:29:54;4.83;;;1.80;;
846;SDS011;410;48.954;9.474;2022-11-23T12:32:17;3.40;;;1.20;;
846;SDS011;410;48.954;9.474;2022-11-23T12:34:33;3.37;;;1.50;;
846;SDS011;410;48.954;9.474;2022-11-23T12:36:47;3.43;;;1.30;;
846;SDS011;410;48.954;9.474;2022-11-23T12:39:12;4.80;;;1.47;;
846;SDS011;410;48.954;9.474;2022-11-23T12:41:23;1.83;;;1.00;;
846;SDS011;410;48.954;9.474;2022-11-23T12:43:35;8.67;;;1.27;;
846;SDS011;410;48.954;9.474;2022-11-23T12:45:55;2.20;;;1.20;;
846;SDS011;410;48.954;9.474;2022-11-23T12:48:14;3.73;;;1.73;;
846;SDS011;410;48.954;9.474;2022-11-23T12:50:22;3.17;;;1.10;;
846;SDS011;410;48.954;9.474;2022-11-23T12:52:36;3.97;;;1.37;;
846;SDS011;410;48.954;9.474;2022-11-23T12:54:49;3.00;;;1.57;;
846;SDS011;410;48.954;9.474;2022-11-23T12:57:07;3.30;;;1.20;;
846;SDS011;410;48.954;9.474;2022-11-23T12:59:13;3.07;;;1.00;;
846;SDS011;410;48.954;9.474;2022-11-23T13:01:19;3.40;;;1.07;;
846;SDS011;410;48.954;9.474;2022-11-23T13:06:19;2.73;;;1.30;;
846;SDS011;410;48.954;9.474;2022-11-23T13:09:10;2.23;;;1.33;;
846;SDS011;410;48.954;9.474;2022-11-23T13:11:20;4.13;;;1.03;;
846;SDS011;410;48.954;9.474;2022-11-23T13:13:41;3.47;;;1.10;;
846;SDS011;410;48.954;9.474;2022-11-23T13:15:57;4.17;;;1.10;;
846;SDS011;410;48.954;9.474;2022-11-23T13:18:23;3.77;;;1.00;;
846;SDS011;410;48.954;9.474;2022-11-23T13:23:04;1.40;;;0.93;;
846;SDS011;410;48.954;9.474;2022-11-23T13:25:18;3.13;;;0.90;;
846;SDS011;410;48.954;9.474;2022-11-23T13:27:32;3.93;;;1.10;;
846;SDS011;410;48.954;9.474;2022-11-23T13:29:50;3.30;;;1.57;;
846;SDS011;410;48.954;9.474;2022-11-23T13:34:45;3.03;;;1.27;;
846;SDS011;410;48.954;9.474;2022-11-23T13:36:57;2.73;;;1.13;;
846;SDS011;410;48.954;9.474;2022-11-23T13:41:59;2.00;;;1.17;;
846;SDS011;410;48.954;9.474;2022-11-23T13:44:09;4.50;;;1.10;;
846;SDS011;410;48.954;9.474;2022-11-23T13:46:20;2.03;;;0.80;;
846;SDS011;410;48.954;9.474;2022-11-23T13:48:24;2.87;;;1.10;;